createdAt,value
2023-12-09T00:04:28.339Z,17.90
2023-12-09T00:09:33.559Z,18.70
2023-12-09T00:14:34.847Z,18.70
2023-12-09T00:20:12.004Z,21.30
2023-12-09T00:25:02.113Z,19.97
2023-12-09T00:35:22.481Z,24.00
2023-12-09T01:11:09.770Z,22.60
2023-12-09T01:23:30.309Z,13.10
2023-12-09T01:28:42.888Z,12.73
2023-12-09T01:39:57.444Z,14.03
2023-12-09T03:14:57.530Z,22.20
2023-12-09T03:20:10.726Z,25.60
2023-12-09T03:49:16.729Z,23.67
2023-12-09T03:54:52.195Z,26.93
2023-12-09T04:00:00.723Z,26.67
2023-12-09T04:05:15.035Z,27.70
2023-12-09T04:10:38.327Z,27.10
2023-12-09T04:38:09.866Z,21.63
2023-12-09T05:27:12.892Z,24.27
2023-12-09T05:33:05.279Z,20.57
2023-12-09T05:38:19.698Z,23.60
2023-12-09T06:27:24.604Z,28.87
2023-12-09T06:33:36.812Z,25.80
2023-12-09T07:04:15.597Z,13.73
2023-12-09T07:09:37.814Z,14.80
2023-12-09T07:14:39.080Z,20.03
2023-12-09T07:19:59.323Z,25.00
2023-12-09T07:33:05.007Z,22.90
2023-12-09T08:19:41.773Z,13.17
2023-12-09T08:24:45.128Z,17.03
2023-12-09T08:29:35.145Z,19.03
2023-12-09T08:34:22.382Z,15.97
2023-12-09T08:39:13.402Z,30.10
2023-12-09T08:44:17.519Z,27.93
2023-12-09T08:49:35.845Z,30.83
2023-12-09T08:54:39.027Z,29.63
2023-12-09T09:06:05.309Z,27.90
2023-12-09T09:40:18.088Z,27.27
2023-12-09T09:45:18.652Z,25.63
2023-12-09T09:50:24.643Z,30.47
2023-12-09T10:07:27.727Z,27.20
2023-12-09T10:12:30.537Z,29.87
2023-12-09T10:22:41.710Z,29.77
2023-12-09T10:27:27.880Z,25.57
2023-12-09T10:33:53.049Z,29.47
2023-12-09T10:38:49.103Z,30.77
2023-12-09T10:43:38.425Z,27.63
2023-12-09T10:48:28.002Z,29.93
2023-12-09T10:53:18.437Z,29.00
2023-12-09T10:58:08.003Z,25.97
2023-12-09T11:03:08.452Z,31.10
2023-12-09T11:07:56.692Z,29.13
2023-12-09T11:13:05.218Z,27.97
2023-12-09T11:17:53.528Z,27.17
2023-12-09T11:22:53.169Z,28.70
2023-12-09T11:27:42.212Z,27.93
2023-12-09T11:32:46.419Z,26.03
2023-12-09T11:37:33.921Z,28.87
2023-12-09T11:42:21.588Z,30.23
2023-12-09T11:47:09.463Z,30.47
2023-12-09T11:51:59.834Z,32.27
2023-12-09T11:57:14.954Z,31.63
2023-12-09T12:02:05.120Z,32.97
2023-12-09T12:06:51.859Z,35.60
2023-12-09T12:11:41.530Z,30.40
2023-12-09T12:16:27.286Z,28.37
2023-12-09T12:21:22.293Z,30.63
2023-12-09T12:26:23.983Z,30.90
2023-12-09T12:31:14.566Z,58.17
2023-12-09T12:36:13.642Z,43.07
2023-12-09T12:41:04.889Z,41.70
2023-12-09T12:45:49.606Z,30.67
2023-12-09T12:50:36.490Z,29.80
2023-12-09T12:55:23.215Z,28.57
2023-12-09T13:00:50.671Z,25.47
2023-12-09T13:06:22.426Z,16.37
2023-12-09T13:11:25.585Z,6.57
2023-12-09T13:16:12.783Z,6.47
2023-12-09T13:20:59.820Z,4.37
2023-12-09T13:26:19.347Z,3.07
2023-12-09T13:31:39.088Z,4.60
2023-12-09T13:36:59.948Z,4.30
2023-12-09T13:41:48.643Z,4.63
2023-12-09T13:46:36.048Z,5.07
2023-12-09T13:51:42.403Z,5.13
2023-12-09T13:56:28.786Z,6.00
2023-12-09T14:01:17.813Z,5.70
2023-12-09T14:06:34.785Z,6.33
2023-12-09T14:11:24.328Z,4.83
2023-12-09T14:16:31.098Z,5.20
2023-12-09T14:21:34.449Z,3.50
2023-12-09T14:26:51.717Z,5.13
2023-12-09T14:32:11.020Z,4.83
2023-12-09T15:52:48.202Z,7.90
2023-12-09T15:58:25.689Z,10.27
2023-12-09T16:17:18.424Z,7.00
2023-12-09T16:22:22.122Z,8.63
2023-12-09T16:27:10.052Z,16.23
2023-12-09T16:32:14.771Z,11.90
2023-12-09T16:37:01.863Z,11.87
2023-12-09T16:42:35.722Z,13.10
2023-12-09T16:47:42.448Z,9.70
2023-12-09T16:52:44.662Z,15.23
2023-12-09T17:03:40.006Z,8.47
2023-12-09T17:09:00.650Z,7.43
2023-12-09T17:19:23.360Z,10.07
2023-12-09T17:30:39.529Z,8.57
2023-12-09T17:47:04.641Z,7.20
2023-12-09T18:09:03.951Z,7.80
